PWSweather.com
Personal Weather Stations
Station Observations
WISCHPK61
Green Bay Schmitt Park, Green Bay, WI 54311

Green Bay Schmitt ParkGreen Bay, WI 54311

Lat: 44.514277, Lon: -87.935067

Elevation: 735

Station Type: Acu Rite Pro Weather Center model 02032C

http://greenbayweathercam.com

High Low Average
Temperature 82.0°F27.8°C 64.0°F17.8°C 70.7°F21.5°C
Dew Point 81.7°F27.6°C 63.7°F17.6°C 70.4°F21.3°C
Winds 1.2 mph 1.9 kmh Calm Calm Calm SCalm S
Wind Gusts 2.3 mph3.7 kmh -- --
Humidity 99% 99% 99%
Pressure 29.32 in992.9 mb 29.19 in988.5 mb -
Precipitation 0.88 in22.4 mm - -
Hour Temp Dew Point Humidity Winds Wind Gusts Pressure Precip Precip Rate Daily Precip Total
12:00 AM 65.8°F18.8°C 65.5°F18.6°C 99% Calm Calm -- 29.26 in990.9 mb - 0.00 in0.0 mm 0.00 in0.0 mm
01:00 AM 65.5°F18.6°C 65.2°F18.4°C 99% Calm Calm -- 29.26 in990.9 mb - 0.00 in0.0 mm 0.00 in0.0 mm
02:00 AM 64.9°F18.3°C 64.6°F18.1°C 99% Calm Calm -- 29.25 in990.5 mb - 0.00 in0.0 mm 0.00 in0.0 mm
03:00 AM 64.4°F18.0°C 64.1°F17.8°C 99% Calm Calm -- 29.26 in990.9 mb - 0.00 in0.0 mm 0.00 in0.0 mm
04:00 AM 64.4°F18.0°C 64.1°F17.8°C 99% Calm Calm -- 29.27 in991.2 mb - 0.00 in0.0 mm 0.00 in0.0 mm
05:00 AM 64.4°F18.0°C 64.1°F17.8°C 99% Calm Calm -- 29.29 in991.9 mb - 0.00 in0.0 mm 0.00 in0.0 mm
06:00 AM 64.0°F17.8°C 63.7°F17.6°C 99% Calm Calm -- 29.30 in992.2 mb - 0.00 in0.0 mm 0.00 in0.0 mm
07:00 AM 64.0°F17.8°C 63.7°F17.6°C 99% Calm Calm -- 29.29 in991.9 mb - 0.00 in0.0 mm 0.00 in0.0 mm
08:00 AM 65.7°F18.7°C 65.4°F18.6°C 99% Calm Calm -- 29.29 in991.9 mb - 0.00 in0.0 mm 0.00 in0.0 mm
09:00 AM 69.4°F20.8°C 69.2°F20.7°C 99% Calm Calm -- 29.30 in992.2 mb - 0.00 in0.0 mm 0.00 in0.0 mm
10:00 AM 73.5°F23.1°C 73.2°F22.9°C 99% 1.2 mph NNW1.9 kmh NNW 2.3 mph3.7 kmh 29.30 in992.2 mb - 0.00 in0.0 mm 0.00 in0.0 mm
11:00 AM 76.7°F24.8°C 76.4°F24.7°C 99% Calm Calm -- 29.31 in992.6 mb - 0.00 in0.0 mm 0.00 in0.0 mm
12:00 PM 78.9°F26.1°C 78.6°F25.9°C 99% Calm Calm -- 29.32 in992.9 mb - 0.00 in0.0 mm 0.00 in0.0 mm
01:00 PM 82.0°F27.8°C 81.7°F27.6°C 99% Calm Calm 1.2 mph1.9 kmh 29.29 in991.9 mb - 0.00 in0.0 mm 0.00 in0.0 mm
02:00 PM 81.7°F27.6°C 81.4°F27.4°C 99% Calm Calm 2.3 mph3.7 kmh 29.26 in990.9 mb - 0.00 in0.0 mm 0.00 in0.0 mm
03:00 PM 79.8°F26.6°C 79.5°F26.4°C 99% 1.2 mph SSE1.9 kmh SSE 1.2 mph1.9 kmh 29.21 in989.2 mb - 0.00 in0.0 mm 0.00 in0.0 mm
04:00 PM 76.6°F24.8°C 76.3°F24.6°C 99% Calm Calm 1.2 mph1.9 kmh 29.20 in988.8 mb - 0.00 in0.0 mm 0.00 in0.0 mm
05:00 PM 74.5°F23.6°C 74.2°F23.4°C 99% 1.2 mph SSE1.9 kmh SSE 2.3 mph3.7 kmh 29.21 in989.2 mb - 0.00 in0.0 mm 0.00 in0.0 mm
06:00 PM 73.0°F22.8°C 72.7°F22.6°C 99% Calm Calm -- 29.19 in988.5 mb - 0.00 in0.0 mm 0.00 in0.0 mm
08:00 PM 69.1°F20.6°C 68.8°F20.4°C 99% Calm Calm -- 29.22 in989.5 mb - 0.11 in2.8 mm 0.65 in16.5 mm
09:00 PM 68.5°F20.3°C 68.2°F20.1°C 99% Calm Calm -- 29.21 in989.2 mb - 0.02 in0.5 mm 0.67 in17.0 mm
10:00 PM 68.2°F20.1°C 67.9°F19.9°C 99% Calm Calm -- 29.24 in990.2 mb - 0.13 in3.3 mm 0.80 in20.3 mm
11:00 PM 68.0°F20.0°C 67.7°F19.8°C 99% Calm Calm -- 29.23 in989.8 mb - 0.10 in2.5 mm 0.88 in22.4 mm